地図

経路データ

SID SEASON NUMBER BASIN SUBBASIN NAME ISO_TIME NATURE LAT LON WMO_WIND WMO_PRES WMO_AGENCY TRACK_TYPE DIST2LAND LANDFALL IFLAG USA_AGENCY USA_ATCF_ID USA_LAT USA_LON USA_RECORD USA_STATUS USA_WIND USA_PRES USA_SSHS USA_R34_NE USA_R34_SE USA_R34_SW USA_R34_NW USA_R50_NE USA_R50_SE USA_R50_SW USA_R50_NW USA_R64_NE USA_R64_SE USA_R64_SW USA_R64_NW USA_POCI USA_ROCI USA_RMW USA_EYE TOKYO_LAT TOKYO_LON TOKYO_GRADE TOKYO_WIND TOKYO_PRES TOKYO_R50_DIR TOKYO_R50_LONG TOKYO_R50_SHORT TOKYO_R30_DIR TOKYO_R30_LONG TOKYO_R30_SHORT TOKYO_LAND CMA_LAT CMA_LON CMA_CAT CMA_WIND CMA_PRES HKO_LAT HKO_LON HKO_CAT HKO_WIND HKO_PRES NEWDELHI_LAT NEWDELHI_LON NEWDELHI_GRADE NEWDELHI_WIND NEWDELHI_PRES NEWDELHI_CI NEWDELHI_DP NEWDELHI_POCI REUNION_LAT REUNION_LON REUNION_TYPE REUNION_WIND REUNION_PRES REUNION_TNUM REUNION_CI REUNION_RMW REUNION_R34_NE REUNION_R34_SE REUNION_R34_SW REUNION_R34_NW REUNION_R50_NE REUNION_R50_SE REUNION_R50_SW REUNION_R50_NW REUNION_R64_NE REUNION_R64_SE REUNION_R64_SW REUNION_R64_NW BOM_LAT BOM_LON BOM_TYPE BOM_WIND BOM_PRES BOM_TNUM BOM_CI BOM_RMW BOM_R34_NE BOM_R34_SE BOM_R34_SW BOM_R34_NW BOM_R50_NE BOM_R50_SE BOM_R50_SW BOM_R50_NW BOM_R64_NE BOM_R64_SE BOM_R64_SW BOM_R64_NW BOM_ROCI BOM_POCI BOM_EYE BOM_POS_METHOD BOM_PRES_METHOD NADI_LAT NADI_LON NADI_CAT NADI_WIND NADI_PRES WELLINGTON_LAT WELLINGTON_LON WELLINGTON_WIND WELLINGTON_PRES DS824_LAT DS824_LON DS824_STAGE DS824_WIND DS824_PRES TD9636_LAT TD9636_LON TD9636_STAGE TD9636_WIND TD9636_PRES TD9635_LAT TD9635_LON TD9635_WIND TD9635_PRES TD9635_ROCI NEUMANN_LAT NEUMANN_LON NEUMANN_CLASS NEUMANN_WIND NEUMANN_PRES MLC_LAT MLC_LON MLC_CLASS MLC_WIND MLC_PRES USA_GUST BOM_GUST BOM_GUST_PER REUNION_GUST REUNION_GUST_PER USA_SEAHGT USA_SEARAD_NE USA_SEARAD_SE USA_SEARAD_SW USA_SEARAD_NW STORM_SPEED STORM_DIR
1878011S18054 1878 2 SI MM NOT_NAMED 1878-01-11 06:00:00 NR -17.6000 54.3000 reunion main 394 394 _____O________ -1 -17.6000 54.3000 99 9.90000 0 0
1878011S18054 1878 2 SI MM NOT_NAMED 1878-01-11 09:00:00 NR -17.6096 54.2992 main 394 394 _____P________ -1 -17.6096 54.2992 99 0 223
1878011S18054 1878 2 SI MM NOT_NAMED 1878-01-11 12:00:00 NR -17.6289 54.2937 main 394 383 _____P________ -1 -17.6289 54.2937 99 1 0
1878011S18054 1878 2 SI MM NOT_NAMED 1878-01-11 15:00:00 NR -17.6679 54.2789 main 383 383 _____P________ -1 -17.6679 54.2789 99 1 196
1878011S18054 1878 2 SI MM NOT_NAMED 1878-01-11 18:00:00 NR -17.7363 54.2501 main 383 376 _____P________ -1 -17.7363 54.2501 99 2 202
1878011S18054 1878 2 SI MM NOT_NAMED 1878-01-11 21:00:00 NR -17.8439 54.2026 main 376 354 _____P________ -1 -17.8439 54.2026 99 3 203
1878011S18054 1878 2 SI MM NOT_NAMED 1878-01-12 00:00:00 NR -18.0005 54.1316 main 358 337 _____P________ -1 -18.0005 54.1316 99 4 203
1878011S18054 1878 2 SI MM NOT_NAMED 1878-01-12 03:00:00 NR -18.2160 54.0324 main 341 315 _____P________ -1 -18.2160 54.0324 99 5 204
1878011S18054 1878 2 SI MM NOT_NAMED 1878-01-12 06:00:00 NR -18.5000 53.9000 reunion main 315 291 _____O________ -1 -18.5000 53.9000 99 9.90000 7 204
1878011S18054 1878 2 SI MM NOT_NAMED 1878-01-12 09:00:00 NR -18.8590 53.7320 main 288 267 _____P________ -1 -18.8590 53.7320 99 9 204
1878011S18054 1878 2 SI MM NOT_NAMED 1878-01-12 12:00:00 NR -19.2861 53.5364 main 267 244 _____P________ -1 -19.2861 53.5364 99 10 203
1878011S18054 1878 2 SI MM NOT_NAMED 1878-01-12 15:00:00 NR -19.7707 53.3241 main 245 231 _____P________ -1 -19.7707 53.3241 99 11 202
1878011S18054 1878 2 SI MM NOT_NAMED 1878-01-12 18:00:00 NR -20.3027 53.1060 main 236 231 _____P________ -1 -20.3027 53.1060 99 12 200
1878011S18054 1878 2 SI MM NOT_NAMED 1878-01-12 21:00:00 NR -20.8717 52.8932 main 239 238 _____P________ -1 -20.8717 52.8932 99 12 198
1878011S18054 1878 2 SI MM NOT_NAMED 1878-01-13 00:00:00 NR -21.4676 52.6968 main 262 262 _____P________ -1 -21.4676 52.6968 99 13 196
1878011S18054 1878 2 SI MM NOT_NAMED 1878-01-13 03:00:00 NR -22.0804 52.5285 main 300 300 _____P________ -1 -22.0804 52.5285 99 13 193
1878011S18054 1878 2 SI MM NOT_NAMED 1878-01-13 06:00:00 NR -22.7000 52.4000 reunion main 337 337 _____O________ -1 -22.7000 52.4000 99 9.90000 12 190
1878011S18054 1878 2 SI MM NOT_NAMED 1878-01-13 09:00:00 NR -23.2923 52.3052 main 381 381 _____P________ -1 -23.2923 52.3052 99 12 187
1878011S18054 1878 2 SI MM NOT_NAMED 1878-01-13 12:00:00 NR -23.9012 52.2428 main 430 430 _____P________ -1 -23.9012 52.2428 99 12 184
1878011S18054 1878 2 SI MM NOT_NAMED 1878-01-13 15:00:00 NR -24.5212 52.2155 main 473 473 _____P________ -1 -24.5212 52.2155 99 13 181
1878011S18054 1878 2 SI MM NOT_NAMED 1878-01-13 18:00:00 NR -25.1471 52.2258 main 490 490 _____P________ -1 -25.1471 52.2258 99 13 178
1878011S18054 1878 2 SI MM NOT_NAMED 1878-01-13 21:00:00 NR -25.7733 52.2766 main 523 523 _____P________ -1 -25.7733 52.2766 99 13 174
1878011S18054 1878 2 SI MM NOT_NAMED 1878-01-14 00:00:00 NR -26.3945 52.3706 main 553 553 _____P________ -1 -26.3945 52.3706 99 13 170
1878011S18054 1878 2 SI MM NOT_NAMED 1878-01-14 03:00:00 NR -27.0053 52.5107 main 583 583 _____P________ -1 -27.0053 52.5107 99 12 166
1878011S18054 1878 2 SI MM NOT_NAMED 1878-01-14 06:00:00 NR -27.6000 52.7000 reunion main 628 628 _____O________ -1 -27.6000 52.7000 99 9.90000 12 163
1878011S18054 1878 2 SI MM NOT_NAMED 1878-01-14 09:00:00 NR -28.1724 52.9136 main 677 677 _____P________ -1 -28.1724 52.9136 99 12 160
1878011S18054 1878 2 SI MM NOT_NAMED 1878-01-14 12:00:00 NR -28.7319 53.1795 main 732 732 _____P________ -1 -28.7319 53.1795 99 12 155
1878011S18054 1878 2 SI MM NOT_NAMED 1878-01-14 15:00:00 NR -29.2782 53.4930 main 793 793 _____P________ -1 -29.2782 53.4930 99 12 152
1878011S18054 1878 2 SI MM NOT_NAMED 1878-01-14 18:00:00 NR -29.8108 53.8492 main 850 850 _____P________ -1 -29.8108 53.8492 99 12 148
1878011S18054 1878 2 SI MM NOT_NAMED 1878-01-14 21:00:00 NR -30.3296 54.2432 main 915 915 _____P________ -1 -30.3296 54.2432 99 12 145
1878011S18054 1878 2 SI MM NOT_NAMED 1878-01-15 00:00:00 NR -30.8343 54.6698 main 987 987 _____P________ -1 -30.8343 54.6698 99 13 143
1878011S18054 1878 2 SI MM NOT_NAMED 1878-01-15 03:00:00 NR -31.3245 55.1239 main 1051 1051 _____P________ -1 -31.3245 55.1239 99 13 141
1878011S18054 1878 2 SI MM NOT_NAMED 1878-01-15 06:00:00 NR -31.8000 55.6000 reunion main 1123 1123 _____O________ -1 -31.8000 55.6000 99 9.90000 13 139
1878011S18054 1878 2 SI MM NOT_NAMED 1878-01-15 09:00:00 NR -32.3189 56.1293 main 1195 1195 _____P________ -1 -32.3189 56.1293 99 14 138
1878011S18054 1878 2 SI MM NOT_NAMED 1878-01-15 12:00:00 NR -32.8275 56.6961 main 1274 1274 _____P________ -1 -32.8275 56.6961 99 14 136
1878011S18054 1878 2 SI MM NOT_NAMED 1878-01-15 15:00:00 NR -33.3172 57.2835 main 1339 1339 _____P________ -1 -33.3172 57.2835 99 14 134
1878011S18054 1878 2 SI MM NOT_NAMED 1878-01-15 18:00:00 NR -33.7796 57.8743 main 1402 1402 _____P________ -1 -33.7796 57.8743 99 13 133
1878011S18054 1878 2 SI MM NOT_NAMED 1878-01-15 21:00:00 NR -34.2067 58.4502 main 1457 1457 _____P________ -1 -34.2067 58.4502 99 12 131
1878011S18054 1878 2 SI MM NOT_NAMED 1878-01-16 00:00:00 NR -34.5907 58.9927 main 1510 1510 _____P________ -1 -34.5907 58.9927 99 11 130
1878011S18054 1878 2 SI MM NOT_NAMED 1878-01-16 03:00:00 NR -34.9242 59.4825 main 1554 1554 _____P________ -1 -34.9242 59.4825 99 10 129
1878011S18054 1878 2 SI MM NOT_NAMED 1878-01-16 06:00:00 NR -35.2000 59.9000 reunion main 1596 1596 _____O________ -1 -35.2000 59.9000 99 9.90000 8 129
1878011S18054 1878 2 SI MM NOT_NAMED 1878-01-16 09:00:00 NR -35.4138 60.2306 main 1625 1619 _____P________ -1 -35.4138 60.2306 99 6 128
1878011S18054 1878 2 SI MM NOT_NAMED 1878-01-16 12:00:00 NR -35.5716 60.4799 main 1619 1602 _____P________ -1 -35.5716 60.4799 99 4 128
1878011S18054 1878 2 SI MM NOT_NAMED 1878-01-16 15:00:00 NR -35.6818 60.6586 main 1602 1599 _____P________ -1 -35.6818 60.6586 99 3 127
1878011S18054 1878 2 SI MM NOT_NAMED 1878-01-16 18:00:00 NR -35.7525 60.7783 main 1588 1588 _____P________ -1 -35.7525 60.7783 99 2 125
1878011S18054 1878 2 SI MM NOT_NAMED 1878-01-16 21:00:00 NR -35.7918 60.8504 main 1585 1585 _____P________ -1 -35.7918 60.8504 99 1 122
1878011S18054 1878 2 SI MM NOT_NAMED 1878-01-17 00:00:00 NR -35.8076 60.8868 main 1585 1585 _____P________ -1 -35.8076 60.8868 99 0 114
1878011S18054 1878 2 SI MM NOT_NAMED 1878-01-17 03:00:00 NR -35.8077 60.8994 main 1585 1585 _____P________ -1 -35.8077 60.8994 99 0 0
1878011S18054 1878 2 SI MM NOT_NAMED 1878-01-17 06:00:00 NR -35.8000 60.9000 reunion main 1585 _____O________ -1 -35.8000 60.9000 99 9.90000 0 0

IBTrACS Databaseについて

本データベースは、米国NOAAが公開する1842年以降の世界の熱帯低気圧のベストトラックデータアーカイブInternational Best Track Archive for Climate Stewardship (IBTrACS)を、ウェブで閲覧しやすい形式に変換したものです。

最終更新日:2021-12-03